Time;durP1;ratioP1;P1;durP2;ratioP2;P2;SDS_P1;SDS_P2;PMS_P1;PMS_P2;Temp;Humidity;BMP_temperature;BMP_pressure;BME280_temperature;BME280_humidity;BME280_pressure;Samples;Min_cycle;Max_cycle;Signal;HPM_P1;HPM_P2
2023/12/30 00:03:58;;;;;;;4.32;2.97;;;;;;;6.95;100.00;100858.31;10411953;28;20041;-71
2023/12/30 00:08:58;;;;;;;4.57;2.30;;;;;;;6.90;100.00;100855.31;10411731;28;20037;-72
2023/12/30 00:13:59;;;;;;;7.22;2.45;;;;;;;6.95;100.00;100860.19;10418419;28;20068;-71
2023/12/30 00:19:00;;;;;;;20.05;3.40;;;;;;;7.02;100.00;100860.31;10411816;28;20065;-71
2023/12/30 00:24:01;;;;;;;5.72;2.28;;;;;;;6.94;100.00;100867.41;10410343;28;20065;-71
2023/12/30 00:29:01;;;;;;;9.75;2.70;;;;;;;6.96;100.00;100865.41;10410134;28;20067;-71
2023/12/30 00:34:02;;;;;;;5.13;2.63;;;;;;;6.87;100.00;100865.59;10427436;28;20030;-72
2023/12/30 00:39:03;;;;;;;13.40;2.92;;;;;;;6.97;100.00;100879.69;10412311;28;20061;-73
2023/12/30 00:44:04;;;;;;;12.70;3.83;;;;;;;7.00;100.00;100884.72;10411385;28;20045;-71
2023/12/30 00:49:04;;;;;;;13.40;3.15;;;;;;;6.95;100.00;100889.78;10411552;28;20065;-71
2023/12/30 00:54:05;;;;;;;9.65;2.80;;;;;;;6.93;100.00;100889.16;10411054;28;20350;-73
2023/12/30 00:59:05;;;;;;;18.52;3.80;;;;;;;6.84;100.00;100893.72;10410709;28;20029;-71
2023/12/30 01:04:06;;;;;;;4.85;2.65;;;;;;;6.87;100.00;100898.75;10410604;28;20033;-73
2023/12/30 01:09:06;;;;;;;15.15;4.85;;;;;;;6.88;100.00;100894.19;10392405;28;20041;-71
2023/12/30 01:14:06;;;;;;;11.68;2.70;;;;;;;6.80;100.00;100895.06;10410277;28;20037;-73
2023/12/30 01:19:07;;;;;;;13.88;3.15;;;;;;;6.79;100.00;100900.63;10424775;28;20048;-72
2023/12/30 01:24:10;;;;;;;16.05;3.03;;;;;;;6.86;100.00;100898.91;10409885;28;20030;-71
2023/12/30 01:29:10;;;;;;;4.95;2.42;;;;;;;6.80;100.00;100908.53;10409654;28;20056;-71
2023/12/30 01:34:10;;;;;;;9.45;2.90;;;;;;;6.84;100.00;100911.72;10408872;28;20041;-73
2023/12/30 01:39:12;;;;;;;5.00;2.28;;;;;;;6.82;100.00;100911.03;10409960;28;20045;-73
2023/12/30 01:44:12;;;;;;;12.30;3.28;;;;;;;6.82;100.00;100916.41;10409398;28;20061;-72
2023/12/30 01:49:12;;;;;;;11.05;3.55;;;;;;;6.82;100.00;100933.41;10410151;28;20037;-73
2023/12/30 01:54:13;;;;;;;12.13;3.15;;;;;;;6.78;100.00;100920.47;10409056;28;20422;-73
2023/12/30 01:59:14;;;;;;;13.23;3.65;;;;;;;6.73;100.00;100946.06;10406653;28;20060;-71
2023/12/30 02:04:14;;;;;;;13.38;2.78;;;;;;;6.87;100.00;100949.06;10424203;28;20040;-72
2023/12/30 02:09:14;;;;;;;9.40;2.40;;;;;;;6.81;100.00;100955.13;10408872;28;20449;-72
2023/12/30 02:14:35;;;;;;;4.20;1.70;;;;;;;6.86;100.00;100944.66;10407395;28;20475;-72
2023/12/30 02:19:36;;;;;;;7.65;2.60;;;;;;;6.85;100.00;100956.44;10408195;28;20054;-72
2023/12/30 02:24:36;;;;;;;10.73;3.15;;;;;;;6.84;100.00;100962.84;10407663;28;20472;-72
2023/12/30 02:29:36;;;;;;;7.50;2.67;;;;;;;6.77;100.00;100972.63;10419389;28;20040;-71
2023/12/30 02:34:37;;;;;;;4.95;2.78;;;;;;;6.83;100.00;100974.63;10422057;28;20041;-71
2023/12/30 02:39:37;;;;;;;17.55;4.45;;;;;;;6.73;100.00;100972.97;10416967;28;20444;-73
2023/12/30 02:44:37;;;;;;;8.38;3.40;;;;;;;6.67;100.00;100976.34;10414995;28;20036;-73
2023/12/30 02:49:42;;;;;;;18.33;2.63;;;;;;;6.70;100.00;100961.69;10438212;28;20104;-72
2023/12/30 02:54:43;;;;;;;4.30;2.65;;;;;;;6.70;100.00;100978.69;10419487;28;20029;-72
2023/12/30 02:59:43;;;;;;;10.20;2.70;;;;;;;6.77;100.00;100978.03;10421233;28;20458;-72
2023/12/30 03:04:44;;;;;;;10.05;2.35;;;;;;;6.74;100.00;100957.66;10416424;28;20583;-72
2023/12/30 03:09:44;;;;;;;6.68;3.03;;;;;;;6.72;100.00;100973.97;10413938;28;20057;-71
2023/12/30 03:14:44;;;;;;;8.38;2.97;;;;;;;6.78;100.00;100966.22;10413568;28;20029;-73
2023/12/30 03:19:45;;;;;;;4.80;2.30;;;;;;;6.79;100.00;100990.25;10429951;28;20499;-72
2023/12/30 03:24:45;;;;;;;4.97;2.33;;;;;;;6.79;100.00;101000.19;10414611;28;20099;-71
2023/12/30 03:29:46;;;;;;;12.18;2.63;;;;;;;6.80;100.00;100994.66;10413753;28;20045;-71
2023/12/30 03:34:46;;;;;;;2.83;1.77;;;;;;;6.69;100.00;100998.53;10414216;28;20425;-73
2023/12/30 03:39:46;;;;;;;7.45;2.90;;;;;;;6.69;100.00;100987.75;10412381;28;20022;-71
2023/12/30 03:44:47;;;;;;;8.77;3.08;;;;;;;6.70;100.00;100983.22;10415345;28;20068;-75
2023/12/30 03:49:47;;;;;;;8.40;1.95;;;;;;;6.74;100.00;100990.78;10416077;28;20356;-75
2023/12/30 03:54:48;;;;;;;6.40;2.65;;;;;;;6.77;100.00;100986.09;10417065;28;20170;-75
2023/12/30 03:59:48;;;;;;;4.97;2.70;;;;;;;6.80;100.00;100986.59;10414459;28;20371;-75
2023/12/30 04:04:49;;;;;;;7.18;4.13;;;;;;;6.81;100.00;100993.63;10433170;28;20037;-75
2023/12/30 04:09:52;;;;;;;6.75;3.17;;;;;;;6.83;100.00;100996.16;10415030;28;20112;-75
2023/12/30 04:14:52;;;;;;;2.78;2.20;;;;;;;6.81;100.00;100995.50;10414307;28;20025;-75
2023/12/30 04:19:53;;;;;;;11.23;2.75;;;;;;;6.86;100.00;100998.50;10431876;28;20135;-75
2023/12/30 04:24:53;;;;;;;4.32;2.55;;;;;;;6.77;100.00;101004.94;10413950;28;20038;-75
2023/12/30 04:29:54;;;;;;;4.70;2.78;;;;;;;6.74;100.00;101003.41;10415283;28;20109;-75
2023/12/30 04:34:54;;;;;;;9.10;3.80;;;;;;;6.70;100.00;101013.69;10414596;28;20452;-75
2023/12/30 04:39:55;;;;;;;9.45;2.80;;;;;;;6.74;100.00;101017.69;10415146;28;20030;-74
2023/12/30 04:44:55;;;;;;;8.00;2.58;;;;;;;6.73;100.00;101012.47;10430332;28;20022;-75
2023/12/30 04:49:59;;;;;;;4.85;2.50;;;;;;;6.81;100.00;101017.03;10413967;28;20056;-75
2023/12/30 04:54:59;;;;;;;2.67;2.03;;;;;;;6.84;100.00;101019.38;10414892;28;20029;-75
2023/12/30 05:00:00;;;;;;;10.43;2.85;;;;;;;6.85;100.00;101024.56;10414298;28;20036;-75
2023/12/30 05:05:00;;;;;;;12.25;3.08;;;;;;;6.95;100.00;101021.69;10413708;28;20099;-76
2023/12/30 05:10:01;;;;;;;16.48;4.10;;;;;;;6.92;100.00;101024.72;10429276;28;20421;-75
2023/12/30 05:15:02;;;;;;;4.70;3.08;;;;;;;6.69;100.00;101025.44;10414625;28;20057;-75
2023/12/30 05:20:04;;;;;;;9.68;2.10;;;;;;;6.69;100.00;101025.44;10430035;28;20049;-75
2023/12/30 05:25:04;;;;;;;13.77;3.40;;;;;;;6.72;100.00;101029.63;10413816;28;20036;-75
2023/12/30 05:30:07;;;;;;;5.60;2.42;;;;;;;6.71;100.00;101039.56;10412850;28;20113;-75
2023/12/30 05:35:07;;;;;;;8.48;2.72;;;;;;;6.64;100.00;101049.34;10414064;28;20026;-75
2023/12/30 05:40:09;;;;;;;10.35;2.20;;;;;;;6.59;100.00;101042.78;10414313;28;20033;-75
2023/12/30 05:45:09;;;;;;;2.60;2.17;;;;;;;6.64;100.00;101045.81;10398326;28;20346;-75
2023/12/30 05:50:12;;;;;;;21.52;4.68;;;;;;;6.58;100.00;101055.38;10415805;28;20112;-75
2023/12/30 05:55:12;;;;;;;4.57;3.08;;;;;;;6.59;100.00;101046.28;10414851;28;20480;-75
2023/12/30 06:00:14;;;;;;;9.85;3.25;;;;;;;6.59;100.00;101051.69;10412457;28;20033;-75
2023/12/30 06:05:14;;;;;;;9.10;3.53;;;;;;;6.58;100.00;101057.25;10411968;28;20028;-75
2023/12/30 06:10:15;;;;;;;17.17;3.38;;;;;;;6.68;100.00;101074.06;10412355;28;20026;-75
2023/12/30 06:15:15;;;;;;;4.70;2.85;;;;;;;6.92;100.00;101079.44;10412851;28;20033;-75
2023/12/30 06:20:16;;;;;;;19.70;3.60;;;;;;;7.03;100.00;101070.16;10429944;28;20053;-75
2023/12/30 06:25:16;;;;;;;7.85;2.53;;;;;;;7.09;100.00;101069.50;10419299;28;20112;-75
2023/12/30 06:30:17;;;;;;;7.78;3.22;;;;;;;7.21;100.00;101065.44;10420815;28;20040;-75
2023/12/30 06:35:17;;;;;;;6.75;2.28;;;;;;;7.47;100.00;101075.13;10435782;28;20120;-75
2023/12/30 06:40:20;;;;;;;4.18;1.88;;;;;;;7.61;100.00;101069.00;10420184;28;20029;-75
2023/12/30 06:45:21;;;;;;;14.18;3.55;;;;;;;7.62;100.00;101070.69;10418703;28;20071;-75
2023/12/30 06:50:24;;;;;;;10.77;2.33;;;;;;;7.55;100.00;101058.09;10419515;28;20037;-75
2023/12/30 06:55:25;;;;;;;6.45;2.88;;;;;;;7.52;100.00;101064.66;10418760;28;20385;-75
2023/12/30 07:00:26;;;;;;;16.02;2.78;;;;;;;7.33;100.00;101049.72;10418471;28;20095;-75
2023/12/30 07:05:35;;;;;;;8.55;2.97;;;;;;;7.17;100.00;101053.31;10418962;28;20174;-75
2023/12/30 07:10:36;;;;;;;6.82;3.20;;;;;;;7.02;100.00;101049.66;10418914;28;20034;-75
2023/12/30 07:15:42;;;;;;;8.80;2.38;;;;;;;6.97;100.00;101065.47;10417662;28;20369;-75
2023/12/30 07:20:43;;;;;;;9.15;2.67;;;;;;;6.92;100.00;101067.81;10433274;28;20049;-75
2023/12/30 07:25:43;;;;;;;6.95;3.35;;;;;;;6.87;100.00;101067.50;10418542;28;20026;-77
2023/12/30 07:30:43;;;;;;;6.78;2.70;;;;;;;6.88;100.00;101071.84;10415112;28;20028;-75
2023/12/30 07:35:44;;;;;;;8.93;3.28;;;;;;;6.85;100.00;101082.97;10418153;28;20510;-75
2023/12/30 07:40:45;;;;;;;8.95;4.88;;;;;;;7.04;100.00;101098.75;10416483;28;20349;-75
2023/12/30 07:45:45;;;;;;;8.10;2.88;;;;;;;7.16;100.00;101100.09;10432792;28;20496;-75
2023/12/30 07:50:46;;;;;;;10.93;3.35;;;;;;;7.29;100.00;101113.06;10416815;28;20397;-75
2023/12/30 07:55:46;;;;;;;10.35;3.08;;;;;;;7.34;100.00;101109.81;10415629;28;20368;-78
2023/12/30 08:00:47;;;;;;;6.32;3.00;;;;;;;7.42;100.00;101113.34;10416199;28;20025;-74
2023/12/30 08:05:47;;;;;;;8.27;3.38;;;;;;;7.52;100.00;101115.84;10416174;28;20026;-75
2023/12/30 08:10:47;;;;;;;8.48;2.28;;;;;;;7.64;100.00;101116.34;10416485;28;20033;-75
2023/12/30 08:15:48;;;;;;;7.45;2.30;;;;;;;7.57;100.00;101120.75;10414468;28;20222;-75
2023/12/30 08:20:51;;;;;;;6.57;2.80;;;;;;;7.52;100.00;101110.47;10417879;28;20199;-75
2023/12/30 08:25:51;;;;;;;6.60;3.17;;;;;;;7.22;100.00;101122.84;10416611;28;20029;-75
2023/12/30 08:30:53;;;;;;;4.40;2.47;;;;;;;7.19;100.00;101126.69;10415876;28;20032;-75
2023/12/30 08:35:54;;;;;;;11.43;3.03;;;;;;;7.17;100.00;101130.56;10415735;28;20029;-75
2023/12/30 08:40:54;;;;;;;7.32;2.53;;;;;;;7.17;100.00;101126.00;10414193;28;20033;-75
2023/12/30 08:45:55;;;;;;;7.07;4.25;;;;;;;7.25;100.00;101141.34;10413767;28;20040;-75
2023/12/30 08:50:55;;;;;;;8.50;3.30;;;;;;;7.37;100.00;101136.44;10415244;28;20436;-75
2023/12/30 08:55:56;;;;;;;7.35;3.42;;;;;;;7.52;100.00;101148.19;10430201;28;20029;-75
2023/12/30 09:00:57;;;;;;;12.43;3.45;;;;;;;7.69;100.00;101149.03;10414189;28;20372;-75
2023/12/30 09:05:57;;;;;;;8.02;3.20;;;;;;;7.93;100.00;101146.22;10413714;28;20149;-75
2023/12/30 09:10:58;;;;;;;8.57;4.10;;;;;;;8.11;100.00;101140.59;10414078;28;20080;-75
2023/12/30 09:15:59;;;;;;;12.95;3.95;;;;;;;8.38;100.00;101146.56;10412381;28;20242;-75
2023/12/30 09:20:59;;;;;;;15.48;4.07;;;;;;;8.33;100.00;101151.63;10413045;28;20130;-75
2023/12/30 09:26:01;;;;;;;4.10;3.55;;;;;;;8.10;100.00;101165.91;10414404;28;20037;-75
2023/12/30 09:31:02;;;;;;;10.93;3.58;;;;;;;8.12;100.00;101150.38;10413329;28;20021;-76
2023/12/30 09:36:02;;;;;;;9.63;4.00;;;;;;;8.18;100.00;101154.22;10412245;28;20490;-75
2023/12/30 09:41:03;;;;;;;11.80;4.15;;;;;;;8.19;100.00;101165.84;10413800;28;20076;-75
2023/12/30 09:46:03;;;;;;;14.60;4.30;;;;;;;8.27;100.00;101179.31;10411512;28;20033;-75
2023/12/30 09:51:04;;;;;;;9.05;2.30;;;;;;;8.23;100.00;101176.13;10411639;28;20098;-75
2023/12/30 09:56:05;;;;;;;5.78;2.55;;;;;;;8.30;100.00;101182.50;10427663;28;20030;-75
2023/12/30 10:01:05;;;;;;;12.65;3.25;;;;;;;8.50;100.00;101187.50;10412719;28;20504;-75
2023/12/30 10:06:11;;;;;;;12.10;3.83;;;;;;;8.72;100.00;101193.97;10411799;28;20024;-75
2023/12/30 10:11:11;;;;;;;12.32;5.15;;;;;;;8.79;100.00;101203.00;10413616;28;20043;-75
2023/12/30 10:16:12;;;;;;;15.02;4.30;;;;;;;8.72;100.00;101193.97;10413182;28;20036;-75
2023/12/30 10:21:13;;;;;;;11.68;4.07;;;;;;;8.81;100.00;101184.78;10412676;28;20424;-75
2023/12/30 10:26:13;;;;;;;8.55;2.67;;;;;;;8.88;100.00;101166.00;10394989;28;20033;-76
2023/12/30 10:31:16;;;;;;;21.33;4.78;;;;;;;9.01;100.00;101172.47;10410984;28;20106;-75
2023/12/30 10:36:17;;;;;;;11.57;4.25;;;;;;;9.06;100.00;101172.78;10412537;28;20036;-75
2023/12/30 10:41:17;;;;;;;24.95;4.88;;;;;;;9.06;100.00;101153.00;10411211;28;20453;-75
2023/12/30 10:46:18;;;;;;;24.95;4.95;;;;;;;9.07;100.00;101146.59;10413399;28;20033;-76
2023/12/30 10:51:24;;;;;;;13.65;3.65;;;;;;;9.03;100.00;101135.31;10411476;28;20056;-75
2023/12/30 10:56:26;;;;;;;12.20;6.03;;;;;;;9.07;100.00;101136.63;10418478;28;20424;-75
2023/12/30 11:01:26;;;;;;;24.33;3.58;;;;;;;9.27;100.00;101142.38;10413818;28;20425;-75
2023/12/30 11:06:36;;;;;;;12.20;4.13;;;;;;;9.41;100.00;101131.75;10430705;28;20025;-74
2023/12/30 11:11:51;;;;;;;27.85;5.90;;;;;;;9.62;100.00;101118.38;10434451;28;20057;-75
2023/12/30 11:16:52;;;;;;;16.50;5.45;;;;;;;9.78;100.00;101115.47;10419418;28;20029;-76
2023/12/30 11:21:54;;;;;;;15.23;6.75;;;;;;;9.71;100.00;101121.81;10433328;28;20492;-76
2023/12/30 11:26:54;;;;;;;16.63;4.95;;;;;;;9.63;100.00;101116.50;10418302;28;20417;-76
2023/12/30 11:31:56;;;;;;;16.05;7.13;;;;;;;9.39;100.00;101118.44;10416795;28;20062;-75
2023/12/30 11:36:58;;;;;;;21.55;5.40;;;;;;;9.37;100.00;101103.44;10433415;28;20069;-76
2023/12/30 11:42:03;;;;;;;36.13;9.05;;;;;;;9.51;100.00;101098.03;10416006;28;20372;-76
2023/12/30 11:47:03;;;;;;;16.02;9.20;;;;;;;9.50;100.00;101085.53;10416411;28;20033;-76
2023/12/30 11:52:04;;;;;;;20.23;9.00;;;;;;;9.51;100.00;101076.41;10432626;28;20025;-75
2023/12/30 11:57:08;;;;;;;9.05;6.68;;;;;;;9.42;100.00;101069.44;10416662;28;20030;-76
2023/12/30 12:02:09;;;;;;;16.35;9.48;;;;;;;9.58;100.00;101060.28;10416921;28;20512;-76
2023/12/30 12:07:10;;;;;;;20.48;9.15;;;;;;;9.86;100.00;101049.63;10431989;28;20029;-79
2023/12/30 12:12:11;;;;;;;28.65;9.55;;;;;;;9.83;100.00;101041.03;10415956;28;20071;-76
2023/12/30 12:17:12;;;;;;;22.80;10.35;;;;;;;9.74;100.00;101034.91;10415562;28;20057;-77
2023/12/30 12:22:13;;;;;;;16.35;9.00;;;;;;;9.59;100.00;101025.97;10432011;28;20049;-75
2023/12/30 12:27:23;;;;;;;18.80;10.57;;;;;;;9.64;100.00;101031.66;10414495;28;20087;-76
2023/12/30 12:32:24;;;;;;;14.30;9.15;;;;;;;9.73;100.00;101025.09;10414736;28;20061;-75
2023/12/30 12:37:25;;;;;;;20.95;6.78;;;;;;;9.70;100.00;101022.78;10430996;28;20408;-77
2023/12/30 12:42:26;;;;;;;19.73;8.40;;;;;;;9.64;100.00;101012.75;10414325;28;20441;-80
2023/12/30 12:47:27;;;;;;;12.43;7.63;;;;;;;9.59;100.00;100986.25;10414448;28;20317;-75
2023/12/30 12:52:27;;;;;;;16.98;6.15;;;;;;;9.78;100.00;100987.53;10414819;28;20041;-75
2023/12/30 12:57:28;;;;;;;23.17;7.75;;;;;;;9.89;100.00;100978.06;10414747;28;20037;-75
2023/12/30 13:02:28;;;;;;;18.83;8.98;;;;;;;9.67;100.00;100978.06;10413627;28;20201;-76
2023/12/30 13:07:29;;;;;;;23.92;7.72;;;;;;;9.58;100.00;100965.66;10414689;28;20437;-76
2023/12/30 13:12:29;;;;;;;23.73;7.90;;;;;;;9.52;100.00;100966.41;10413529;28;20029;-77
2023/12/30 13:17:29;;;;;;;19.85;6.07;;;;;;;9.61;100.00;100946.34;10412882;28;20037;-75
2023/12/30 13:22:30;;;;;;;19.00;7.25;;;;;;;9.63;100.00;100943.44;10413835;28;20096;-76
2023/12/30 13:27:30;;;;;;;17.90;6.55;;;;;;;9.60;100.00;100941.13;10413620;28;20050;-76
2023/12/30 13:32:31;;;;;;;16.85;6.05;;;;;;;9.49;100.00;100946.00;10418169;28;20187;-76
2023/12/30 13:37:32;;;;;;;29.38;6.72;;;;;;;9.31;100.00;100923.94;10415437;28;20092;-76
2023/12/30 13:42:32;;;;;;;13.82;6.55;;;;;;;9.35;100.00;100917.16;10397207;28;20025;-75
2023/12/30 13:52:47;;;;;;;14.65;6.07;;;;;;;9.35;100.00;100900.06;10412228;28;20514;-76
2023/12/30 13:57:52;;;;;;;13.73;5.50;;;;;;;9.36;100.00;100907.16;10427957;28;20030;-77
2023/12/30 14:02:54;;;;;;;17.05;6.55;;;;;;;9.43;100.00;100890.00;10428158;28;20026;-76
2023/12/30 14:07:56;;;;;;;11.88;4.57;;;;;;;9.51;100.00;100886.34;10412668;28;20120;-75
2023/12/30 14:13:00;;;;;;;5.18;4.00;;;;;;;9.40;100.00;100882.25;10426956;28;20029;-76
2023/12/30 14:18:01;;;;;;;7.32;5.25;;;;;;;9.58;100.00;100867.50;10412425;28;20485;-77
2023/12/30 14:23:02;;;;;;;10.20;5.38;;;;;;;9.66;100.00;100870.06;10411785;28;20061;-77
2023/12/30 14:28:04;;;;;;;17.08;4.45;;;;;;;9.76;100.00;100876.00;10411884;28;20033;-77
2023/12/30 14:33:05;;;;;;;22.38;5.53;;;;;;;9.76;100.00;100870.59;10411947;28;20048;-77
2023/12/30 14:38:06;;;;;;;10.20;4.88;;;;;;;9.83;100.00;100865.22;10410121;28;20124;-77
2023/12/30 14:43:07;;;;;;;13.35;3.60;;;;;;;9.76;100.00;100860.63;10416132;28;20124;-75
2023/12/30 14:48:07;;;;;;;7.22;3.35;;;;;;;9.75;100.00;100847.28;10419881;28;20080;-76
2023/12/30 14:53:08;;;;;;;12.38;4.85;;;;;;;9.75;100.00;100855.41;10418641;28;20376;-77
2023/12/30 14:58:09;;;;;;;9.75;2.47;;;;;;;9.77;100.00;100859.59;10435230;28;20433;-75
2023/12/30 15:03:10;;;;;;;9.55;4.93;;;;;;;9.71;100.00;100852.25;10419001;28;20032;-75
2023/12/30 15:08:10;;;;;;;14.02;4.35;;;;;;;9.67;100.00;100845.56;10419055;28;20059;-76
2023/12/30 15:13:10;;;;;;;6.65;2.30;;;;;;;9.61;100.00;100843.63;10419983;28;20068;-76
2023/12/30 15:18:11;;;;;;;16.33;3.65;;;;;;;9.61;100.00;100842.78;10417385;28;20053;-76
2023/12/30 15:23:11;;;;;;;7.20;3.70;;;;;;;9.66;100.00;100832.22;10432458;28;20143;-77
2023/12/30 15:28:12;;;;;;;11.00;3.72;;;;;;;9.68;100.00;100841.81;10416123;28;20029;-75
2023/12/30 15:33:12;;;;;;;4.00;2.65;;;;;;;9.65;100.00;100825.16;10417367;28;20074;-77
2023/12/30 15:38:13;;;;;;;9.80;3.90;;;;;;;9.60;100.00;100804.06;10433031;28;20133;-76
2023/12/30 15:43:14;;;;;;;6.68;2.97;;;;;;;9.55;100.00;100801.97;10416568;28;20036;-76
2023/12/30 15:48:14;;;;;;;13.90;4.70;;;;;;;9.55;100.00;100807.38;10415409;28;20026;-76
2023/12/30 15:53:15;;;;;;;4.85;3.35;;;;;;;9.66;100.00;100797.06;10415294;28;20061;-76
2023/12/30 15:58:16;;;;;;;2.80;2.15;;;;;;;9.61;100.00;100804.94;10416799;28;20517;-76
2023/12/30 16:03:17;;;;;;;7.85;3.28;;;;;;;9.61;100.00;100802.22;10417514;28;20471;-76
2023/12/30 16:08:17;;;;;;;8.48;2.85;;;;;;;9.71;100.00;100797.34;10417093;28;20030;-75
2023/12/30 16:13:18;;;;;;;8.45;3.80;;;;;;;9.79;100.00;100794.47;10434248;28;20025;-76
2023/12/30 16:18:19;;;;;;;13.77;2.83;;;;;;;9.73;100.00;100795.25;10419173;28;20033;-75
2023/12/30 16:23:19;;;;;;;12.27;3.17;;;;;;;9.72;100.00;100794.41;10417292;28;20049;-76
2023/12/30 16:28:21;;;;;;;8.23;3.55;;;;;;;9.73;100.00;100779.03;10415855;28;20388;-76
2023/12/30 16:33:24;;;;;;;13.85;4.45;;;;;;;9.76;100.00;100773.22;10431014;28;20022;-76
2023/12/30 16:38:27;;;;;;;7.63;2.47;;;;;;;9.77;100.00;100777.63;10430772;28;20029;-75
2023/12/30 16:43:31;;;;;;;11.07;4.30;;;;;;;9.84;100.00;100777.69;10415045;28;20092;-75
2023/12/30 16:48:31;;;;;;;12.98;4.50;;;;;;;9.83;100.00;100773.28;10429942;28;20471;-76
2023/12/30 16:53:34;;;;;;;4.55;3.42;;;;;;;9.83;100.00;100767.88;10415367;28;20152;-76
2023/12/30 16:58:39;;;;;;;8.43;2.78;;;;;;;9.87;100.00;100774.59;10414016;28;20041;-76
2023/12/30 17:03:40;;;;;;;12.25;3.80;;;;;;;9.77;100.00;100770.34;10412551;28;20060;-75
2023/12/30 17:08:41;;;;;;;2.75;2.55;;;;;;;9.65;100.00;100750.28;10414586;28;20034;-76
2023/12/30 17:13:42;;;;;;;2.80;2.60;;;;;;;9.50;100.00;100747.63;10415041;28;20337;-76
2023/12/30 17:18:43;;;;;;;3.03;2.72;;;;;;;9.66;100.00;100751.94;10413796;28;20112;-76
2023/12/30 17:23:44;;;;;;;4.20;1.80;;;;;;;9.64;100.00;100728.84;10412098;28;20489;-76
2023/12/30 17:28:51;;;;;;;5.18;1.90;;;;;;;9.55;100.00;100717.34;10416773;28;20042;-77
2023/12/30 17:33:51;;;;;;;2.45;2.25;;;;;;;9.48;100.00;100713.75;10414075;28;20033;-76
2023/12/30 17:38:52;;;;;;;2.25;2.00;;;;;;;9.32;100.00;100701.34;10413678;28;20373;-75
2023/12/30 17:43:53;;;;;;;3.58;1.63;;;;;;;9.20;100.00;100697.47;10412594;28;20037;-76
2023/12/30 17:48:57;;;;;;;4.18;3.50;;;;;;;9.13;100.00;100700.13;10428807;28;20041;-75
2023/12/30 17:53:57;;;;;;;2.85;2.40;;;;;;;9.17;100.00;100700.56;10413691;28;20025;-75
2023/12/30 17:58:58;;;;;;;6.07;3.47;;;;;;;9.25;100.00;100682.38;10413332;28;20033;-75
2023/12/30 18:03:58;;;;;;;4.65;3.13;;;;;;;9.27;100.00;100682.16;10412451;28;20098;-76
2023/12/30 18:08:59;;;;;;;7.80;3.38;;;;;;;9.28;100.00;100676.56;10428831;28;20029;-76
2023/12/30 18:14:00;;;;;;;5.40;2.80;;;;;;;9.46;100.00;100659.88;10412746;28;20488;-75
2023/12/30 18:19:01;;;;;;;4.43;3.17;;;;;;;9.57;100.00;100639.56;10420224;28;20030;-75
2023/12/30 18:24:01;;;;;;;4.70;2.42;;;;;;;9.58;100.00;100651.22;10419373;28;20156;-76
2023/12/30 18:29:01;;;;;;;4.20;3.00;;;;;;;9.52;100.00;100642.88;10420096;28;20041;-75
2023/12/30 18:34:02;;;;;;;4.50;3.13;;;;;;;9.42;100.00;100639.69;10436985;28;20108;-75
2023/12/30 18:39:03;;;;;;;8.70;2.55;;;;;;;9.35;100.00;100628.00;10421972;28;20029;-75
2023/12/30 18:44:04;;;;;;;13.20;3.65;;;;;;;9.51;100.00;100625.00;10420182;28;20084;-75
2023/12/30 18:49:05;;;;;;;14.30;3.55;;;;;;;9.62;100.00;100647.09;10422543;28;20108;-75
2023/12/30 18:54:05;;;;;;;9.82;3.13;;;;;;;9.68;100.00;100638.19;10423151;28;20041;-76
2023/12/30 18:59:06;;;;;;;4.45;3.70;;;;;;;9.66;100.00;100638.38;10434896;28;20053;-75
2023/12/30 19:04:06;;;;;;;5.57;2.80;;;;;;;9.72;100.00;100636.75;10419283;28;20022;-75
2023/12/30 19:09:07;;;;;;;5.55;3.40;;;;;;;9.64;100.00;100624.25;10419909;28;20061;-76
2023/12/30 19:14:08;;;;;;;4.85;4.35;;;;;;;9.49;100.00;100612.69;10419056;28;20100;-76
2023/12/30 19:19:08;;;;;;;10.43;5.13;;;;;;;9.50;100.00;100609.78;10419066;28;20143;-75
2023/12/30 19:24:09;;;;;;;6.20;2.90;;;;;;;9.53;100.00;100585.06;10434393;28;20065;-75
2023/12/30 19:29:09;;;;;;;18.88;4.15;;;;;;;9.65;100.00;100589.91;10418758;28;20132;-76
2023/12/30 19:34:10;;;;;;;6.50;3.47;;;;;;;9.68;100.00;100570.59;10418881;28;20434;-75
2023/12/30 19:39:10;;;;;;;11.00;4.78;;;;;;;9.75;100.00;100566.06;10419054;28;20120;-76
2023/12/30 19:44:10;;;;;;;6.30;4.00;;;;;;;9.74;100.00;100553.59;10418511;28;20064;-76
2023/12/30 19:49:13;;;;;;;8.85;6.30;;;;;;;9.71;100.00;100554.81;10418729;28;20117;-75
2023/12/30 19:54:13;;;;;;;8.63;3.90;;;;;;;9.83;100.00;100552.38;10433903;28;20057;-76
2023/12/30 19:59:14;;;;;;;3.63;3.42;;;;;;;9.84;100.00;100532.41;10418436;28;20116;-75
2023/12/30 20:04:14;;;;;;;4.60;3.53;;;;;;;9.90;100.00;100526.19;10418087;28;20124;-75
2023/12/30 20:09:15;;;;;;;3.38;3.03;;;;;;;9.87;100.00;100504.94;10416847;28;20037;-75
2023/12/30 20:14:16;;;;;;;3.70;3.40;;;;;;;9.85;100.00;100487.25;10433263;28;20117;-76
2023/12/30 20:19:17;;;;;;;4.05;3.08;;;;;;;9.97;100.00;100505.41;10417466;28;20025;-75
2023/12/30 20:24:17;;;;;;;3.60;2.78;;;;;;;9.97;100.00;100496.47;10415883;28;20132;-76
2023/12/30 20:29:17;;;;;;;4.10;3.72;;;;;;;10.06;100.00;100491.69;10416074;28;20480;-75
2023/12/30 20:34:18;;;;;;;6.65;3.38;;;;;;;10.07;100.00;100469.84;10416025;28;20085;-77
2023/12/30 20:39:18;;;;;;;5.35;3.20;;;;;;;10.05;100.00;100463.81;10416314;28;20112;-76
2023/12/30 20:44:19;;;;;;;2.70;2.50;;;;;;;10.00;100.00;100455.47;10415770;28;20376;-75
2023/12/30 20:49:20;;;;;;;5.00;3.50;;;;;;;10.04;100.00;100445.06;10430820;28;20036;-75
2023/12/30 20:54:21;;;;;;;4.22;2.58;;;;;;;9.97;100.00;100440.47;10414186;28;20029;-75
2023/12/30 20:59:22;;;;;;;4.97;3.88;;;;;;;10.06;100.00;100422.19;10414611;28;20033;-75
2023/12/30 21:04:22;;;;;;;4.97;3.28;;;;;;;9.98;100.00;100406.16;10413933;28;20030;-76
2023/12/30 21:09:23;;;;;;;4.20;3.58;;;;;;;10.06;100.00;100405.97;10430785;28;20041;-76
2023/12/30 21:14:24;;;;;;;3.72;3.42;;;;;;;10.08;100.00;100406.56;10414044;28;20406;-75
2023/12/30 21:19:24;;;;;;;2.72;2.55;;;;;;;10.13;100.00;100401.38;10414840;28;20155;-75
2023/12/30 21:24:25;;;;;;;5.45;3.55;;;;;;;10.11;100.00;100386.38;10416717;28;20056;-75
2023/12/30 21:29:25;;;;;;;7.57;3.22;;;;;;;9.97;100.00;100380.16;10417923;28;20450;-75
2023/12/30 21:34:26;;;;;;;5.32;2.67;;;;;;;10.02;100.00;100377.66;10413554;28;20128;-75
2023/12/30 21:39:26;;;;;;;6.60;2.97;;;;;;;9.95;100.00;100374.09;10414057;28;20060;-75
2023/12/30 21:44:26;;;;;;;3.33;3.03;;;;;;;9.82;100.00;100355.97;10397271;28;20033;-76
2023/12/30 21:49:27;;;;;;;2.97;2.67;;;;;;;9.83;100.00;100360.38;10428944;28;20523;-75
2023/12/30 21:54:27;;;;;;;8.57;3.63;;;;;;;9.75;100.00;100347.88;10429237;28;20123;-76
2023/12/30 21:59:28;;;;;;;3.53;3.13;;;;;;;9.72;100.00;100339.34;10413987;28;20064;-75
2023/12/30 22:04:28;;;;;;;4.88;2.80;;;;;;;9.74;100.00;100337.28;10428786;28;20075;-77
2023/12/30 22:09:29;;;;;;;7.65;3.42;;;;;;;9.61;100.00;100311.03;10411497;28;20060;-76
2023/12/30 22:14:29;;;;;;;10.50;3.47;;;;;;;9.64;100.00;100320.63;10412132;28;20444;-76
2023/12/30 22:19:30;;;;;;;3.17;2.35;;;;;;;9.62;100.00;100318.09;10411923;28;20167;-76
2023/12/30 22:24:31;;;;;;;7.60;2.38;;;;;;;9.62;100.00;100317.28;10414251;28;20060;-76
2023/12/30 22:29:31;;;;;;;3.17;2.25;;;;;;;9.51;100.00;100311.44;10428543;28;20033;-76
2023/12/30 22:34:32;;;;;;;8.05;2.58;;;;;;;9.50;100.00;100308.94;10429404;28;20034;-76
2023/12/30 22:39:32;;;;;;;4.07;3.17;;;;;;;9.51;100.00;100311.44;10428634;28;20123;-76
2023/12/30 22:44:33;;;;;;;3.35;2.28;;;;;;;9.53;100.00;100298.53;10412031;28;20061;-76
2023/12/30 22:49:33;;;;;;;7.45;3.13;;;;;;;9.63;100.00;100294.59;10412596;28;20040;-75
2023/12/30 22:54:34;;;;;;;13.82;3.63;;;;;;;9.65;100.00;100273.63;10412578;28;20033;-76
2023/12/30 22:59:35;;;;;;;6.72;2.90;;;;;;;9.66;100.00;100277.97;10394258;28;20033;-77
2023/12/30 23:04:35;;;;;;;3.53;2.58;;;;;;;9.71;100.00;100260.09;10433223;28;20365;-77